ENEV/EVE METAR and TAF weather

Enter ICAO airport designator
Station Type Date Time Source
ENEV METAR 2021/07/30 23:20 UTC NOAA

ENEV 302320Z AUTO 35014KT 9999 OVC011/// 10/08 Q0997 RMK WIND 1400FT 01019KT


Station Type Date Time Source
ENEV Decoded METAR 2021/07/30 23:20 UTC NOAA

Evenes, Norway (ENEV) 68-31N 016-41E 26M
Jul 30, 2021 - 07:20 PM EDT / 2021.07.30 2320 UTC
Wind: from the N (350 degrees) at 16 MPH (14 KT):0
Visibility: greater than 7 mile(s):0
Sky conditions: overcast
Temperature: 50 F (10 C)
Dew Point: 46 F (8 C)
Relative Humidity: 87%
Pressure (altimeter): 29.44 in. Hg (0997 hPa)
ob: ENEV 302320Z AUTO 35014KT 9999 OVC011/// 10/08 Q0997 RMK WIND 1400FT 01019KT
cycle: 23

Station Type Date Time Source
ENEV TAF 2010/02/05 07:50 UTC NOAA

METAR ENEV 050750Z 14007KT 9999 FEW040 SCT055 M04/M09 Q1019

Example: see airport list